Petersburg, North Dakota
Current Conditions -  °F | °C
As of 3:58 PM on Thursday 23 Oct 2014 (Local Time) from KRDR Reporting Station
Clear Clear  
Wind Chill: 71°   Ceiling: Unl
Heat Index: 71°   Visibility: 10mi
Dew Point: 38°   Wind: 10mph
Humidity: 30%   Direction: 240°WSW
Pressure: 29.8"   Gusts: NA
Location:  48.01°N, 98°W
Report Text: KRDR 232058Z AUTO 24009KT 10SM CLR 22/04 A2980 RMK AO2 SLP096 T02180035 57013
Loading
Personal Weather Stations






























Interactive Weather Map
Tropical Storm Tracking
New forecast layout! Learn more

10-Day Weather Forecast

Advertisements
Track Severe Weather on mobile